createdAt,value
2022-12-04T00:01:21.337Z,100309.31
2022-12-04T00:03:49.681Z,100305.13
2022-12-04T00:06:19.270Z,100304.03
2022-12-04T00:08:48.680Z,100306.66
2022-12-04T00:11:18.503Z,100302.53
2022-12-04T00:13:47.116Z,100308.59
2022-12-04T00:16:18.986Z,100306.91
2022-12-04T00:18:46.759Z,100303.47
2022-12-04T00:21:16.108Z,100305.09
2022-12-04T00:23:44.575Z,100304.28
2022-12-04T00:26:14.193Z,100303.50
2022-12-04T00:28:42.542Z,100294.19
2022-12-04T00:31:13.067Z,100305.09
2022-12-04T00:33:42.628Z,100321.31
2022-12-04T00:36:12.582Z,100318.91
2022-12-04T00:38:41.395Z,100325.00
2022-12-04T00:41:09.730Z,100318.88
2022-12-04T00:43:37.371Z,100311.94
2022-12-04T00:46:05.188Z,100309.47
2022-12-04T00:48:32.899Z,100300.09
2022-12-04T00:51:04.481Z,100306.91
2022-12-04T00:53:32.216Z,100310.38
2022-12-04T00:56:00.059Z,100294.81
2022-12-04T00:58:27.718Z,100296.47
2022-12-04T01:01:03.405Z,100296.63
2022-12-04T01:03:31.566Z,100295.88
2022-12-04T01:05:59.625Z,100288.16
2022-12-04T01:08:28.875Z,100273.41
2022-12-04T01:10:56.748Z,100268.28
2022-12-04T01:13:25.300Z,100270.19
2022-12-04T01:15:53.552Z,100269.38
2022-12-04T01:18:21.329Z,100256.28
2022-12-04T01:20:50.691Z,100262.53
2022-12-04T01:23:19.204Z,100263.19
2022-12-04T01:25:56.009Z,100264.94
2022-12-04T01:28:24.743Z,100277.84
2022-12-04T01:31:03.246Z,100294.19
2022-12-04T01:33:31.926Z,100297.69
2022-12-04T01:36:01.270Z,100289.13
2022-12-04T01:38:29.671Z,100289.97
2022-12-04T01:40:59.770Z,100289.88
2022-12-04T01:43:29.782Z,100299.19
2022-12-04T01:45:58.460Z,100305.34
2022-12-04T01:48:30.762Z,100300.22
2022-12-04T01:51:06.312Z,100302.75
2022-12-04T01:53:36.450Z,100301.94
2022-12-04T01:56:06.465Z,100305.41
2022-12-04T01:58:38.877Z,100306.25
2022-12-04T02:01:09.467Z,100297.69
2022-12-04T02:03:38.942Z,100298.47
2022-12-04T02:06:08.033Z,100291.66
2022-12-04T02:08:37.139Z,100294.19
2022-12-04T02:11:18.805Z,100294.28
2022-12-04T02:13:58.177Z,100296.72
2022-12-04T02:16:32.073Z,100305.28
2022-12-04T02:19:08.797Z,100297.56
2022-12-04T02:21:39.137Z,100298.50
2022-12-04T02:24:46.839Z,100299.50
2022-12-04T02:27:32.962Z,100297.69
2022-12-04T02:30:05.324Z,100298.50
2022-12-04T02:32:41.075Z,100301.97
2022-12-04T02:35:15.896Z,100298.50
2022-12-04T02:37:46.795Z,100299.41
2022-12-04T02:40:22.114Z,100297.66
2022-12-04T02:42:56.206Z,100291.53
2022-12-04T02:45:31.268Z,100296.03
2022-12-04T02:48:02.023Z,100296.88
2022-12-04T02:50:33.430Z,100304.50
2022-12-04T02:53:07.592Z,100306.22
2022-12-04T02:55:39.116Z,100302.78
2022-12-04T02:58:11.650Z,100307.16
2022-12-04T03:00:44.844Z,100295.13
2022-12-04T03:03:19.683Z,100294.28
2022-12-04T03:05:55.048Z,100288.34
2022-12-04T03:08:27.298Z,100284.06
2022-12-04T03:10:58.881Z,100280.50
2022-12-04T03:13:32.114Z,100271.91
2022-12-04T03:16:05.882Z,100259.00
2022-12-04T03:18:37.303Z,100256.28
2022-12-04T03:21:10.892Z,100255.69
2022-12-04T03:23:43.722Z,100252.31
2022-12-04T03:26:16.668Z,100256.72
2022-12-04T03:28:52.053Z,100253.06
2022-12-04T03:31:30.559Z,100258.25
2022-12-04T03:34:02.506Z,100259.94
2022-12-04T03:36:35.851Z,100260.03
2022-12-04T03:39:09.880Z,100265.13
2022-12-04T03:41:54.865Z,100277.16
2022-12-04T03:44:27.636Z,100266.09
2022-12-04T03:47:04.517Z,100267.78
2022-12-04T03:49:38.158Z,100267.66
2022-12-04T03:52:11.877Z,100264.25
2022-12-04T03:54:45.224Z,100261.72
2022-12-04T03:57:17.712Z,100252.34
2022-12-04T03:59:55.477Z,100260.03
2022-12-04T04:02:29.863Z,100262.63
2022-12-04T04:05:01.072Z,100262.63
2022-12-04T04:07:35.891Z,100261.81
2022-12-04T04:10:09.084Z,100259.00
2022-12-04T04:12:42.021Z,100247.81
2022-12-04T04:15:30.465Z,100247.06
2022-12-04T04:18:19.546Z,100258.28
2022-12-04T04:21:08.749Z,100252.34
2022-12-04T04:23:59.818Z,100245.41
2022-12-04T04:26:34.158Z,100244.69
2022-12-04T04:29:02.163Z,100241.19
2022-12-04T04:31:37.542Z,100248.13
2022-12-04T04:34:19.403Z,100247.31
2022-12-04T04:36:55.249Z,100250.72
2022-12-04T04:39:31.093Z,100248.13
2022-12-04T04:42:04.247Z,100253.25
2022-12-04T04:44:42.142Z,100244.56
2022-12-04T04:47:17.734Z,100241.03
2022-12-04T04:49:50.867Z,100243.66
2022-12-04T04:52:22.074Z,100249.78
2022-12-04T04:54:49.856Z,100246.41
2022-12-04T04:57:27.574Z,100248.06
2022-12-04T04:59:55.739Z,100238.63
2022-12-04T05:02:25.549Z,100236.13
2022-12-04T05:04:55.645Z,100234.91
2022-12-04T05:07:23.362Z,100235.94
2022-12-04T05:09:51.192Z,100238.47
2022-12-04T05:12:18.920Z,100251.25
2022-12-04T05:14:48.221Z,100254.78
2022-12-04T05:17:16.315Z,100252.91
2022-12-04T05:19:56.565Z,100258.97
2022-12-04T05:22:27.846Z,100253.00
2022-12-04T05:24:56.302Z,100262.34
2022-12-04T05:27:25.717Z,100261.56
2022-12-04T05:29:54.501Z,100256.28
2022-12-04T05:32:23.495Z,100256.44
2022-12-04T05:34:51.974Z,100258.97
2022-12-04T05:37:20.373Z,100255.56
2022-12-04T05:39:49.542Z,100262.19
2022-12-04T05:42:17.244Z,100248.69
2022-12-04T05:44:45.077Z,100242.69
2022-12-04T05:47:12.964Z,100253.03
2022-12-04T05:49:40.896Z,100248.75
2022-12-04T05:52:08.782Z,100253.06
2022-12-04T05:54:36.669Z,100262.44
2022-12-04T05:57:05.849Z,100252.97
2022-12-04T05:59:34.110Z,100249.59
2022-12-04T06:02:01.847Z,100247.03
2022-12-04T06:04:31.431Z,100254.47
2022-12-04T06:06:59.078Z,100250.25
2022-12-04T06:09:26.766Z,100253.78
2022-12-04T06:11:59.023Z,100257.16
2022-12-04T06:14:28.141Z,100261.41
2022-12-04T06:16:55.861Z,100260.47
2022-12-04T06:19:24.790Z,100259.72
2022-12-04T06:21:54.336Z,100264.91
2022-12-04T06:24:24.794Z,100270.69
2022-12-04T06:27:27.356Z,100268.22
2022-12-04T06:29:46.057Z,100271.75
2022-12-04T06:32:17.932Z,100256.41
2022-12-04T06:34:51.400Z,100259.72
2022-12-04T06:37:19.326Z,100257.97
2022-12-04T06:39:47.298Z,100256.28
2022-12-04T06:42:14.966Z,100258.91
2022-12-04T06:44:42.709Z,100249.50
2022-12-04T06:47:12.053Z,100251.22
2022-12-04T06:49:39.965Z,100249.38
2022-12-04T06:52:07.880Z,100250.31
2022-12-04T06:54:35.680Z,100257.84
2022-12-04T06:57:03.546Z,100252.72
2022-12-04T06:59:32.541Z,100256.19
2022-12-04T07:02:00.251Z,100247.59
2022-12-04T07:04:29.370Z,100251.06
2022-12-04T07:06:57.571Z,100242.59
2022-12-04T07:09:25.300Z,100249.50
2022-12-04T07:11:55.092Z,100248.44
2022-12-04T07:14:23.003Z,100249.34
2022-12-04T07:16:50.825Z,100250.31
2022-12-04T07:19:18.730Z,100256.16
2022-12-04T07:21:47.720Z,100247.69
2022-12-04T07:24:17.599Z,100252.13
2022-12-04T07:26:45.413Z,100251.16
2022-12-04T07:29:13.392Z,100244.41
2022-12-04T07:31:41.179Z,100244.34
2022-12-04T07:34:08.990Z,100249.53
2022-12-04T07:36:36.795Z,100251.22
2022-12-04T07:39:05.856Z,100256.16
2022-12-04T07:41:33.563Z,100255.50
2022-12-04T07:44:07.207Z,100251.31
2022-12-04T07:46:35.134Z,100262.56
2022-12-04T07:49:03.342Z,100266.81
2022-12-04T07:51:31.034Z,100270.31
2022-12-04T07:54:03.713Z,100262.38
2022-12-04T07:56:33.666Z,100272.84
2022-12-04T07:59:01.703Z,100271.13
2022-12-04T08:01:29.921Z,100276.31
2022-12-04T08:03:59.352Z,100272.75
2022-12-04T08:06:30.517Z,100272.88
2022-12-04T08:08:58.511Z,100268.66
2022-12-04T08:11:28.300Z,100263.38
2022-12-04T08:13:58.806Z,100264.31
2022-12-04T08:16:28.470Z,100269.59
2022-12-04T08:18:57.141Z,100266.13
2022-12-04T08:21:26.351Z,100267.88
2022-12-04T08:23:56.361Z,100263.59
2022-12-04T08:26:27.022Z,100252.47
2022-12-04T08:28:55.858Z,100256.72
2022-12-04T08:31:27.206Z,100260.19
2022-12-04T08:33:56.906Z,100261.94
2022-12-04T08:36:24.941Z,100258.38
2022-12-04T08:38:53.370Z,100266.91
2022-12-04T08:41:24.144Z,100269.59
2022-12-04T08:43:55.046Z,100261.97
2022-12-04T08:46:23.928Z,100262.72
2022-12-04T08:48:53.270Z,100251.66
2022-12-04T08:51:22.952Z,100252.56
2022-12-04T08:53:54.715Z,100256.72
2022-12-04T08:56:22.969Z,100261.66
2022-12-04T08:58:50.773Z,100267.72
2022-12-04T09:01:18.884Z,100276.31
2022-12-04T09:03:46.553Z,100268.63
2022-12-04T09:06:16.671Z,100269.59
2022-12-04T09:08:44.387Z,100277.28
2022-12-04T09:11:13.767Z,100277.25
2022-12-04T09:13:42.368Z,100270.38
2022-12-04T09:16:13.877Z,100262.63
2022-12-04T09:18:42.465Z,100257.47
2022-12-04T09:21:12.320Z,100265.19
2022-12-04T09:23:42.199Z,100272.06
2022-12-04T09:26:19.453Z,100271.31
2022-12-04T09:28:47.339Z,100258.34
2022-12-04T09:31:15.154Z,100252.34
2022-12-04T09:33:42.978Z,100259.19
2022-12-04T09:36:15.974Z,100257.38
2022-12-04T09:38:46.275Z,100260.00
2022-12-04T09:41:35.070Z,100262.53
2022-12-04T09:44:07.420Z,100262.47
2022-12-04T09:46:39.460Z,100260.78
2022-12-04T09:49:12.772Z,100258.06
2022-12-04T09:51:43.035Z,100260.50
2022-12-04T09:54:17.383Z,100260.78
2022-12-04T09:56:48.535Z,100265.91
2022-12-04T09:59:22.093Z,100268.50
2022-12-04T10:01:53.200Z,100264.28
2022-12-04T10:04:20.992Z,100270.38
2022-12-04T10:06:57.921Z,100258.25
2022-12-04T10:09:33.265Z,100247.13
2022-12-04T10:12:14.136Z,100256.63
2022-12-04T10:14:59.450Z,100248.88
2022-12-04T10:17:41.359Z,100241.19
2022-12-04T10:20:24.379Z,100243.56
2022-12-04T10:23:08.189Z,100235.03
2022-12-04T10:25:42.791Z,100238.34
2022-12-04T10:28:21.718Z,100240.97
2022-12-04T10:30:51.304Z,100241.00
2022-12-04T10:33:23.787Z,100235.91
2022-12-04T10:35:53.987Z,100235.91
2022-12-04T10:38:33.167Z,100226.38
2022-12-04T10:41:14.570Z,100223.81
2022-12-04T10:43:45.615Z,100204.75
2022-12-04T10:46:16.229Z,100217.84
2022-12-04T10:48:46.337Z,100210.06
2022-12-04T10:51:16.900Z,100206.63
2022-12-04T10:53:46.359Z,100189.41
2022-12-04T10:56:18.035Z,100197.22
2022-12-04T10:58:56.633Z,100193.59
2022-12-04T11:01:24.703Z,100192.03
2022-12-04T11:04:00.177Z,100186.84
2022-12-04T11:06:28.656Z,100191.19
2022-12-04T11:08:57.490Z,100189.59
2022-12-04T11:11:29.030Z,100191.34
2022-12-04T11:14:08.442Z,100182.53
2022-12-04T11:16:39.900Z,100179.06
2022-12-04T11:19:22.206Z,100180.84
2022-12-04T11:21:51.166Z,100183.53
2022-12-04T11:24:24.134Z,100178.22
2022-12-04T11:26:53.529Z,100182.63
2022-12-04T11:29:25.894Z,100175.94
2022-12-04T11:31:58.583Z,100181.81
2022-12-04T11:34:36.337Z,100188.59
2022-12-04T11:37:05.763Z,100183.34
2022-12-04T11:39:38.409Z,100187.50
2022-12-04T11:42:18.260Z,100189.41
2022-12-04T11:44:52.931Z,100195.34
2022-12-04T11:47:22.342Z,100190.25
2022-12-04T11:50:01.722Z,100205.66
2022-12-04T11:52:44.205Z,100201.38
2022-12-04T11:55:17.148Z,100191.00
2022-12-04T11:57:57.245Z,100201.28
2022-12-04T12:00:27.673Z,100211.44
2022-12-04T12:03:11.231Z,100203.84
2022-12-04T12:06:03.084Z,100195.25
2022-12-04T12:08:46.076Z,100197.00
2022-12-04T12:11:23.563Z,100191.97
2022-12-04T12:14:03.860Z,100194.38
2022-12-04T12:16:40.958Z,100200.34
2022-12-04T12:19:28.015Z,100191.00
2022-12-04T12:22:05.565Z,100182.50
2022-12-04T12:24:44.557Z,100185.75
2022-12-04T12:27:38.681Z,100185.91
2022-12-04T12:30:16.657Z,100190.16
2022-12-04T12:33:06.193Z,100187.28
2022-12-04T12:35:40.454Z,100183.00
2022-12-04T12:38:12.923Z,100188.25
2022-12-04T12:40:44.877Z,100189.78
2022-12-04T12:43:17.492Z,100188.88
2022-12-04T12:45:52.965Z,100186.72
2022-12-04T12:48:30.030Z,100188.50
2022-12-04T12:51:28.352Z,100185.06
2022-12-04T12:53:56.128Z,100186.78
2022-12-04T12:56:36.070Z,100186.78
2022-12-04T12:59:07.460Z,100191.00
2022-12-04T13:01:50.415Z,100177.41
2022-12-04T13:04:26.420Z,100171.31
2022-12-04T13:07:05.765Z,100167.09
2022-12-04T13:09:37.182Z,100159.16
2022-12-04T13:12:12.844Z,100157.59
2022-12-04T13:14:44.682Z,100154.25
2022-12-04T13:17:22.347Z,100144.91
2022-12-04T13:19:54.077Z,100134.56
2022-12-04T13:22:31.414Z,100141.41
2022-12-04T13:25:20.998Z,100135.53
2022-12-04T13:28:03.466Z,100129.53
2022-12-04T13:30:44.496Z,100119.19
2022-12-04T13:33:40.853Z,100116.44
2022-12-04T13:36:31.352Z,100114.00
2022-12-04T13:39:27.050Z,100108.84
2022-12-04T13:42:00.361Z,100108.81
2022-12-04T13:44:30.067Z,100115.59
2022-12-04T13:47:00.594Z,100120.72
2022-12-04T13:49:32.371Z,100126.78
2022-12-04T13:52:06.169Z,100125.22
2022-12-04T13:54:36.377Z,100127.69
2022-12-04T13:57:22.914Z,100130.03
2022-12-04T14:00:04.347Z,100119.06
2022-12-04T14:02:53.342Z,100124.22
2022-12-04T14:05:31.923Z,100123.34
2022-12-04T14:08:07.570Z,100116.69
2022-12-04T14:10:40.260Z,100118.28
2022-12-04T14:13:19.278Z,100126.72
2022-12-04T14:15:48.697Z,100125.88
2022-12-04T14:18:28.543Z,100120.66
2022-12-04T14:21:02.203Z,100119.88
2022-12-04T14:23:37.313Z,100113.19
2022-12-04T14:26:06.220Z,100110.34
2022-12-04T14:28:45.833Z,100119.00
2022-12-04T14:31:37.153Z,100114.75
2022-12-04T14:34:22.637Z,100117.41
2022-12-04T14:36:55.864Z,100115.00
2022-12-04T14:39:28.602Z,100119.03
2022-12-04T14:42:08.577Z,100124.16
2022-12-04T14:44:42.879Z,100130.06
2022-12-04T14:47:23.362Z,100131.00
2022-12-04T14:50:04.343Z,100135.16
2022-12-04T14:52:39.287Z,100135.16
2022-12-04T14:55:20.199Z,100144.69
2022-12-04T14:57:54.428Z,100148.19
2022-12-04T15:00:24.873Z,100149.84
2022-12-04T15:02:56.065Z,100150.75
2022-12-04T15:05:29.668Z,100152.47
2022-12-04T15:08:02.662Z,100162.03
2022-12-04T15:10:50.155Z,100154.44
2022-12-04T15:13:27.075Z,100155.22
2022-12-04T15:15:55.787Z,100149.84
2022-12-04T15:18:24.662Z,100154.06
2022-12-04T15:21:00.354Z,100153.31
2022-12-04T15:23:35.879Z,100144.84
2022-12-04T15:26:09.093Z,100145.56
2022-12-04T15:28:44.101Z,100144.66
2022-12-04T15:31:17.424Z,100131.94
2022-12-04T15:33:48.437Z,100133.59
2022-12-04T15:36:21.217Z,100133.75
2022-12-04T15:38:54.714Z,100130.38
2022-12-04T15:41:34.574Z,100130.28
2022-12-04T15:44:03.428Z,100132.06
2022-12-04T15:46:34.595Z,100127.38
2022-12-04T15:49:10.311Z,100137.06
2022-12-04T15:51:38.726Z,100149.22
2022-12-04T15:54:18.793Z,100142.44
2022-12-04T15:56:57.776Z,100141.53
2022-12-04T15:59:29.276Z,100142.25
2022-12-04T16:02:02.299Z,100152.63
2022-12-04T16:04:36.593Z,100146.72
2022-12-04T16:07:20.151Z,100154.25
2022-12-04T16:10:02.839Z,100151.81
2022-12-04T16:12:33.966Z,100148.38
2022-12-04T16:15:02.505Z,100145.75
2022-12-04T16:17:32.779Z,100152.66
2022-12-04T16:20:02.078Z,100148.25
2022-12-04T16:22:31.589Z,100142.25
2022-12-04T16:25:01.487Z,100134.66
2022-12-04T16:27:29.779Z,100139.88
2022-12-04T16:29:58.463Z,100139.00
2022-12-04T16:32:32.010Z,100143.28
2022-12-04T16:35:00.818Z,100144.16
2022-12-04T16:37:30.258Z,100144.16
2022-12-04T16:40:00.492Z,100138.16
2022-12-04T16:42:30.655Z,100141.88
2022-12-04T16:45:00.159Z,100149.72
2022-12-04T16:47:29.392Z,100144.91
2022-12-04T16:49:58.232Z,100148.13
2022-12-04T16:52:26.826Z,100154.19
2022-12-04T16:54:57.525Z,100156.81
2022-12-04T16:57:29.278Z,100152.59
2022-12-04T16:59:58.087Z,100149.00
2022-12-04T17:02:28.717Z,100141.41
2022-12-04T17:04:58.098Z,100140.66
2022-12-04T17:07:26.809Z,100138.00
2022-12-04T17:09:55.092Z,100141.34
2022-12-04T17:12:23.668Z,100141.41
2022-12-04T17:14:53.470Z,100133.75
2022-12-04T17:17:22.111Z,100133.53
2022-12-04T17:19:50.392Z,100132.72
2022-12-04T17:22:26.303Z,100133.75
2022-12-04T17:24:56.365Z,100130.25
2022-12-04T17:27:26.021Z,100132.66
2022-12-04T17:29:56.169Z,100121.78
2022-12-04T17:32:24.842Z,100120.78
2022-12-04T17:34:55.105Z,100120.94
2022-12-04T17:37:24.710Z,100116.59
2022-12-04T17:39:53.068Z,100113.41
2022-12-04T17:42:22.304Z,100107.34
2022-12-04T17:44:51.126Z,100110.72
2022-12-04T17:47:25.826Z,100104.75
2022-12-04T17:49:54.976Z,100107.31
2022-12-04T17:52:24.364Z,100100.47
2022-12-04T17:54:53.885Z,100097.19
2022-12-04T17:57:24.033Z,100099.75
2022-12-04T17:59:55.393Z,100097.06
2022-12-04T18:02:30.138Z,100095.47
2022-12-04T18:05:01.658Z,100095.47
2022-12-04T18:07:32.067Z,100097.13
2022-12-04T18:10:02.651Z,100100.63
2022-12-04T18:12:32.190Z,100121.91
2022-12-04T18:15:01.245Z,100120.97
2022-12-04T18:17:30.861Z,100124.28
2022-12-04T18:20:04.272Z,100130.34
2022-12-04T18:22:37.342Z,100135.41
2022-12-04T18:25:07.429Z,100126.16
2022-12-04T18:27:40.343Z,100137.31
2022-12-04T18:30:10.427Z,100139.06
2022-12-04T18:32:39.552Z,100138.22
2022-12-04T18:35:07.786Z,100139.81
2022-12-04T18:37:35.505Z,100135.66
2022-12-04T18:40:06.914Z,100147.69
2022-12-04T18:42:34.972Z,100146.66
2022-12-04T18:45:03.335Z,100145.75
2022-12-04T18:47:31.061Z,100139.44
2022-12-04T18:50:00.482Z,100141.94
2022-12-04T18:52:28.587Z,100144.44
2022-12-04T18:54:56.341Z,100144.47
2022-12-04T18:57:24.203Z,100147.31
2022-12-04T18:59:51.953Z,100149.13
2022-12-04T19:02:19.702Z,100148.88
2022-12-04T19:04:47.864Z,100138.72
2022-12-04T19:07:18.592Z,100134.72
2022-12-04T19:12:34.247Z,100142.44
2022-12-04T19:15:01.953Z,100150.13
2022-12-04T19:17:29.638Z,100143.34
2022-12-04T19:19:57.802Z,100136.56
2022-12-04T19:22:27.791Z,100145.16
2022-12-04T19:24:55.643Z,100144.31
2022-12-04T19:27:23.422Z,100142.59
2022-12-04T19:29:51.270Z,100146.03
2022-12-04T19:32:19.189Z,100142.31
2022-12-04T19:34:49.317Z,100145.97
2022-12-04T19:37:17.772Z,100147.50
2022-12-04T19:39:48.394Z,100148.41
2022-12-04T19:42:16.145Z,100157.97
2022-12-04T19:44:48.699Z,100156.94
2022-12-04T19:47:17.175Z,100155.41
2022-12-04T19:49:44.978Z,100168.13
2022-12-04T19:52:12.987Z,100170.78
2022-12-04T19:54:40.835Z,100170.75
2022-12-04T19:57:09.913Z,100173.34
2022-12-04T19:59:43.068Z,100180.16
2022-12-04T20:02:14.695Z,100182.72
2022-12-04T20:04:43.166Z,100176.69
2022-12-04T20:07:11.041Z,100184.38
2022-12-04T20:09:38.917Z,100180.91
2022-12-04T20:12:07.289Z,100196.44
2022-12-04T20:14:36.497Z,100196.44
2022-12-04T20:17:05.134Z,100196.31
2022-12-04T20:19:33.459Z,100199.84
2022-12-04T20:22:01.696Z,100203.31
2022-12-04T20:24:29.509Z,100201.50
2022-12-04T20:26:57.725Z,100209.16
2022-12-04T20:29:25.441Z,100206.69
2022-12-04T20:31:54.614Z,100198.03
2022-12-04T20:34:22.526Z,100196.31
2022-12-04T20:36:50.629Z,100203.22
2022-12-04T20:39:20.797Z,100202.34
2022-12-04T20:41:49.056Z,100204.91
2022-12-04T20:44:19.055Z,100211.81
2022-12-04T20:46:47.357Z,100206.69
2022-12-04T20:49:21.943Z,100210.94
2022-12-04T20:51:51.973Z,100204.09
2022-12-04T20:54:21.659Z,100207.50
2022-12-04T20:56:52.079Z,100219.53
2022-12-04T20:59:21.978Z,100209.31
2022-12-04T21:01:50.485Z,100211.88
2022-12-04T21:04:20.069Z,100210.19
2022-12-04T21:06:48.346Z,100210.13
2022-12-04T21:09:18.757Z,100213.59
2022-12-04T21:11:48.962Z,100213.59
2022-12-04T21:14:36.778Z,100210.75
2022-12-04T21:17:06.703Z,100217.84
2022-12-04T21:19:36.248Z,100213.56
2022-12-04T21:22:04.215Z,100207.59
2022-12-04T21:24:37.930Z,100207.56
2022-12-04T21:27:05.767Z,100210.06
2022-12-04T21:29:34.100Z,100206.69
2022-12-04T21:32:02.178Z,100206.75
2022-12-04T21:34:30.002Z,100206.63
2022-12-04T21:36:59.563Z,100207.59
2022-12-04T21:39:27.435Z,100204.13
2022-12-04T21:42:12.658Z,100208.41
2022-12-04T21:44:40.583Z,100204.13
2022-12-04T21:47:08.335Z,100206.75
2022-12-04T21:49:36.161Z,100208.31
2022-12-04T21:52:05.421Z,100204.94
2022-12-04T21:54:33.274Z,100205.91
2022-12-04T21:57:01.283Z,100209.09
2022-12-04T21:59:29.113Z,100213.53
2022-12-04T22:01:57.267Z,100213.53
2022-12-04T22:04:25.265Z,100214.44
2022-12-04T22:06:53.124Z,100218.78
2022-12-04T22:09:22.242Z,100218.81
2022-12-04T22:11:49.913Z,100223.88
2022-12-04T22:14:17.662Z,100228.94
2022-12-04T22:16:45.556Z,100232.44
2022-12-04T22:19:14.277Z,100234.16
2022-12-04T22:21:41.975Z,100237.59
2022-12-04T22:24:10.715Z,100236.69
2022-12-04T22:26:40.182Z,100233.97
2022-12-04T22:29:34.075Z,100232.31
2022-12-04T22:31:56.221Z,100235.00
2022-12-04T22:34:24.086Z,100231.56
2022-12-04T22:36:51.809Z,100230.75
2022-12-04T22:39:19.486Z,100235.06
2022-12-04T22:41:48.649Z,100231.56
2022-12-04T22:44:16.382Z,100238.41
2022-12-04T22:46:44.113Z,100242.78
2022-12-04T22:49:11.929Z,100244.50
2022-12-04T22:51:39.686Z,100242.81
2022-12-04T22:54:08.084Z,100245.34
2022-12-04T22:56:35.896Z,100248.75
2022-12-04T22:59:05.282Z,100250.44
2022-12-04T23:01:34.674Z,100246.06
2022-12-04T23:04:04.380Z,100249.59
2022-12-04T23:06:33.729Z,100248.72
2022-12-04T23:09:03.565Z,100250.47
2022-12-04T23:11:31.289Z,100254.69
2022-12-04T23:14:01.116Z,100250.28
2022-12-04T23:16:31.361Z,100252.88
2022-12-04T23:18:59.137Z,100249.53
2022-12-04T23:21:28.653Z,100258.97
2022-12-04T23:23:57.505Z,100259.00
2022-12-04T23:26:27.779Z,100246.97
2022-12-04T23:28:56.304Z,100249.50
2022-12-04T23:31:24.470Z,100244.41
2022-12-04T23:33:53.784Z,100244.38
2022-12-04T23:36:22.551Z,100249.50
2022-12-04T23:38:50.379Z,100246.88
2022-12-04T23:41:20.188Z,100252.97
2022-12-04T23:43:49.240Z,100252.91
2022-12-04T23:46:20.508Z,100258.91
2022-12-04T23:48:48.340Z,100255.53
2022-12-04T23:51:19.329Z,100261.56
2022-12-04T23:53:48.004Z,100260.66
2022-12-04T23:56:18.812Z,100265.84
2022-12-04T23:58:48.675Z,100264.84
